Time;durP1;ratioP1;P1;durP2;ratioP2;P2;SDS_P1;SDS_P2;PMS_P1;PMS_P2;Temp;Humidity;BMP_temperature;BMP_pressure;BME280_temperature;BME280_humidity;BME280_pressure;Samples;Min_cycle;Max_cycle;Signal;HPM_P1;HPM_P2
2023/07/03 00:00:33;;;;;;;10.23;5.18;;;16.30;99.90;;;;;;5071238;28;20380;-67
2023/07/03 00:02:59;;;;;;;13.15;4.25;;;16.30;99.90;;;;;;5071120;28;20033;-67
2023/07/03 00:05:25;;;;;;;22.35;5.05;;;16.30;99.90;;;;;;5071500;28;20044;-68
2023/07/03 00:07:51;;;;;;;13.48;5.22;;;16.20;99.90;;;;;;5071205;28;20044;-67
2023/07/03 00:10:21;;;;;;;17.15;5.35;;;16.20;99.90;;;;;;5071228;28;20415;-67
2023/07/03 00:12:47;;;;;;;11.75;4.53;;;16.20;99.90;;;;;;5071480;28;20492;-67
2023/07/03 00:15:13;;;;;;;12.65;4.30;;;16.20;99.90;;;;;;5071557;28;20033;-67
2023/07/03 00:17:39;;;;;;;11.48;4.38;;;16.20;99.90;;;;;;5063238;28;20447;-67
2023/07/03 00:20:06;;;;;;;13.45;4.47;;;16.20;99.90;;;;;;5071232;28;20040;-67
2023/07/03 00:22:32;;;;;;;12.88;3.78;;;16.20;99.90;;;;;;5071456;28;20044;-67
2023/07/03 00:24:58;;;;;;;14.80;5.10;;;16.20;99.90;;;;;;5071411;28;20043;-67
2023/07/03 00:27:24;;;;;;;11.95;4.47;;;16.20;99.90;;;;;;5070809;28;20047;-67
2023/07/03 00:29:49;;;;;;;17.77;4.05;;;16.20;99.90;;;;;;5071365;28;20119;-67
2023/07/03 00:32:15;;;;;;;15.05;4.55;;;16.20;99.90;;;;;;5071146;28;20041;-67
2023/07/03 00:34:40;;;;;;;14.30;4.28;;;16.20;99.90;;;;;;5073749;28;20459;-67
2023/07/03 00:37:06;;;;;;;13.77;4.65;;;16.20;99.90;;;;;;5075090;28;20036;-66
2023/07/03 00:39:32;;;;;;;14.18;4.45;;;16.20;99.90;;;;;;5075444;28;20071;-67
2023/07/03 00:41:58;;;;;;;15.82;4.50;;;16.20;99.90;;;;;;5073645;28;20462;-67
2023/07/03 00:44:24;;;;;;;13.73;4.32;;;16.20;99.90;;;;;;5075473;28;20041;-67
2023/07/03 00:46:50;;;;;;;11.73;4.30;;;16.20;99.90;;;;;;5075356;28;20043;-67
2023/07/03 00:49:18;;;;;;;11.70;4.18;;;16.20;99.90;;;;;;5075001;28;20036;-68
2023/07/03 00:51:53;;;;;;;11.77;3.83;;;16.20;99.90;;;;;;5074839;28;20089;-67
2023/07/03 00:54:19;;;;;;;9.13;3.22;;;16.20;99.90;;;;;;5075117;28;20037;-67
2023/07/03 00:56:45;;;;;;;14.02;3.90;;;16.20;99.90;;;;;;5074875;28;20469;-67
2023/07/03 00:59:10;;;;;;;9.75;3.83;;;16.20;99.90;;;;;;5074910;28;20035;-67
2023/07/03 01:01:39;;;;;;;12.18;3.53;;;16.20;99.90;;;;;;5074717;28;20044;-67
2023/07/03 01:04:15;;;;;;;13.23;4.38;;;16.20;99.90;;;;;;5074962;28;20047;-67
2023/07/03 01:06:46;;;;;;;14.60;4.05;;;16.10;99.90;;;;;;5074795;28;20074;-67
2023/07/03 01:09:14;;;;;;;10.13;4.07;;;16.10;99.90;;;;;;5074496;28;20051;-67
2023/07/03 01:11:40;;;;;;;9.50;3.25;;;16.10;99.90;;;;;;5074610;28;20041;-67
2023/07/03 01:14:09;;;;;;;10.63;3.70;;;16.10;99.90;;;;;;5074826;28;20444;-67
2023/07/03 01:16:36;;;;;;;11.02;3.40;;;16.10;99.90;;;;;;5074410;28;20575;-67
2023/07/03 01:19:03;;;;;;;12.68;4.40;;;16.10;99.90;;;;;;5074458;28;20036;-67
2023/07/03 01:21:44;;;;;;;13.20;3.50;;;16.10;99.90;;;;;;5074203;28;20040;-67
2023/07/03 01:24:23;;;;;;;14.75;4.07;;;16.10;99.90;;;;;;5074736;28;20130;-67
2023/07/03 01:26:48;;;;;;;14.13;3.55;;;16.10;99.90;;;;;;5099231;22;20044;-70
2023/07/03 01:29:15;;;;;;;12.57;3.75;;;16.10;99.90;;;;;;5074159;28;20048;-70
2023/07/03 01:31:42;;;;;;;13.82;3.80;;;16.10;99.90;;;;;;5073988;28;20070;-70
2023/07/03 01:34:09;;;;;;;12.57;4.03;;;16.10;99.90;;;;;;5074155;28;20041;-70
2023/07/03 01:36:36;;;;;;;8.65;3.17;;;16.10;99.90;;;;;;5074159;28;20044;-70
2023/07/03 01:39:03;;;;;;;15.90;4.10;;;16.10;99.90;;;;;;5073918;28;20040;-70
2023/07/03 01:41:30;;;;;;;13.90;4.13;;;16.00;99.90;;;;;;5073984;28;20052;-70
2023/07/03 01:43:55;;;;;;;11.63;3.60;;;16.00;99.90;;;;;;5074198;28;20048;-70
2023/07/03 01:46:22;;;;;;;11.43;3.70;;;16.00;99.90;;;;;;5073560;28;20124;-70
2023/07/03 01:48:48;;;;;;;12.23;3.80;;;16.00;99.90;;;;;;5073724;28;20064;-71
2023/07/03 01:51:27;;;;;;;10.13;4.05;;;16.00;99.90;;;;;;5073813;28;20062;-70
2023/07/03 01:54:01;;;;;;;9.43;3.08;;;16.00;99.90;;;;;;5074102;28;20059;-70
2023/07/03 01:56:33;;;;;;;12.15;3.80;;;16.00;99.90;;;;;;5039223;28;20116;-70
2023/07/03 01:59:08;;;;;;;11.38;4.43;;;15.90;99.90;;;;;;5073715;28;20033;-70
2023/07/03 02:01:46;;;;;;;13.63;3.22;;;15.80;99.90;;;;;;5073535;28;20495;-70
2023/07/03 02:04:36;;;;;;;7.72;3.95;;;15.80;99.90;;;;;;5074138;28;20068;-70
2023/07/03 02:07:05;;;;;;;8.43;3.15;;;15.70;99.90;;;;;;5073446;28;20037;-70
2023/07/03 02:09:31;;;;;;;9.35;3.08;;;15.70;99.90;;;;;;5073671;28;20045;-70
2023/07/03 02:11:57;;;;;;;13.13;3.85;;;15.60;99.90;;;;;;5073394;28;20495;-70
2023/07/03 02:14:24;;;;;;;7.75;2.75;;;15.60;99.90;;;;;;5055664;28;20052;-70
2023/07/03 02:16:52;;;;;;;13.07;2.95;;;15.60;99.90;;;;;;5073760;28;20037;-70
2023/07/03 02:19:21;;;;;;;6.28;2.58;;;15.50;99.90;;;;;;5073399;28;20037;-70
2023/07/03 02:21:46;;;;;;;12.30;3.05;;;15.60;99.90;;;;;;5055412;28;20033;-71
2023/07/03 02:24:13;;;;;;;10.70;3.13;;;15.50;99.90;;;;;;5073252;28;20510;-71
2023/07/03 02:26:39;;;;;;;9.30;3.65;;;15.50;99.90;;;;;;5073519;28;20047;-71
2023/07/03 02:29:04;;;;;;;14.90;3.03;;;15.50;99.90;;;;;;5073223;28;20070;-70
2023/07/03 02:31:30;;;;;;;7.75;2.50;;;15.60;99.90;;;;;;5055083;28;20040;-71
2023/07/03 02:33:56;;;;;;;9.23;3.38;;;15.60;99.90;;;;;;5073444;28;20082;-71
2023/07/03 02:36:24;;;;;;;7.95;2.90;;;15.50;99.90;;;;;;5073479;28;20124;-71
2023/07/03 02:38:49;;;;;;;10.02;3.30;;;15.50;99.90;;;;;;5054873;28;20041;-71
2023/07/03 02:41:15;;;;;;;15.27;3.35;;;15.50;99.90;;;;;;5055021;28;20070;-70
2023/07/03 02:43:40;;;;;;;9.43;3.45;;;15.50;99.90;;;;;;5073127;28;20561;-70
2023/07/03 02:46:08;;;;;;;9.43;3.92;;;15.40;99.90;;;;;;5072706;28;20037;-70
2023/07/03 02:48:34;;;;;;;15.75;4.07;;;15.40;99.90;;;;;;5054794;28;20083;-70
2023/07/03 02:50:59;;;;;;;12.13;3.45;;;15.40;99.90;;;;;;5072576;28;20097;-71
2023/07/03 02:53:25;;;;;;;10.85;3.40;;;15.40;99.90;;;;;;5072877;28;20036;-70
2023/07/03 02:55:53;;;;;;;9.25;3.22;;;15.30;99.90;;;;;;5072743;28;20044;-70
2023/07/03 02:58:19;;;;;;;8.35;3.70;;;15.40;99.90;;;;;;5072043;28;20508;-70
2023/07/03 03:00:44;;;;;;;10.68;2.88;;;15.40;99.90;;;;;;5054934;28;20037;-70
2023/07/03 03:03:10;;;;;;;10.10;2.95;;;15.30;99.90;;;;;;5072700;28;20456;-70
2023/07/03 03:05:35;;;;;;;5.97;2.28;;;15.30;99.90;;;;;;5072515;28;20037;-70
2023/07/03 03:08:01;;;;;;;9.38;2.42;;;15.30;99.90;;;;;;5072188;28;20086;-70
2023/07/03 03:10:27;;;;;;;5.40;2.22;;;15.30;99.90;;;;;;5054491;28;20091;-71
2023/07/03 03:12:52;;;;;;;8.82;3.08;;;15.20;99.90;;;;;;5072690;28;20041;-70
2023/07/03 03:15:18;;;;;;;10.32;2.75;;;15.20;99.90;;;;;;5072602;28;20033;-71
2023/07/03 03:17:44;;;;;;;7.57;2.53;;;15.20;99.90;;;;;;5072006;28;20068;-71
2023/07/03 03:20:13;;;;;;;6.35;1.90;;;15.20;99.90;;;;;;5072091;28;20859;-71
2023/07/03 03:22:39;;;;;;;16.30;2.88;;;15.20;99.90;;;;;;5054241;28;20044;-70
2023/07/03 03:25:04;;;;;;;9.75;2.47;;;15.20;99.90;;;;;;5072311;28;20043;-70
2023/07/03 03:27:30;;;;;;;8.80;2.10;;;15.10;99.90;;;;;;5071778;28;20400;-70
2023/07/03 03:29:56;;;;;;;6.65;1.85;;;15.10;99.90;;;;;;5072054;28;20041;-70
2023/07/03 03:32:21;;;;;;;7.03;1.90;;;15.10;99.90;;;;;;5072193;28;20450;-70
2023/07/03 03:34:47;;;;;;;11.13;1.95;;;15.10;99.90;;;;;;5072092;28;20036;-70
2023/07/03 03:37:13;;;;;;;11.48;2.13;;;15.10;99.90;;;;;;5071704;28;20073;-70
2023/07/03 03:39:38;;;;;;;6.93;1.92;;;15.00;99.90;;;;;;5054543;28;20127;-70
2023/07/03 03:42:04;;;;;;;7.95;2.35;;;15.00;99.90;;;;;;5071750;28;20043;-70
2023/07/03 03:44:30;;;;;;;7.97;2.45;;;15.00;99.90;;;;;;5072095;28;20523;-70
2023/07/03 03:46:55;;;;;;;7.82;2.30;;;15.00;99.90;;;;;;5071520;28;20123;-70
2023/07/03 03:49:22;;;;;;;8.23;2.17;;;15.00;99.90;;;;;;5053982;28;20102;-70
2023/07/03 03:51:47;;;;;;;14.98;2.80;;;15.10;99.90;;;;;;5071493;28;20419;-70
2023/07/03 03:54:13;;;;;;;9.40;2.42;;;15.00;99.90;;;;;;5069004;28;20037;-70
2023/07/03 03:56:38;;;;;;;15.27;2.15;;;15.00;99.90;;;;;;5069255;28;20028;-70
2023/07/03 03:59:04;;;;;;;10.82;2.20;;;15.00;99.90;;;;;;5071453;28;20068;-70
2023/07/03 04:01:29;;;;;;;7.95;1.90;;;15.10;99.90;;;;;;5071200;28;20059;-70
2023/07/03 04:03:55;;;;;;;9.38;2.03;;;15.00;99.90;;;;;;5071694;28;20040;-70
2023/07/03 04:06:20;;;;;;;9.98;1.90;;;15.00;99.90;;;;;;5071564;28;20504;-70
2023/07/03 04:08:46;;;;;;;5.95;2.08;;;15.00;99.90;;;;;;5071426;28;20546;-70
2023/07/03 04:11:13;;;;;;;12.70;2.20;;;15.00;99.90;;;;;;5071494;28;20067;-70
2023/07/03 04:13:39;;;;;;;4.32;1.90;;;15.00;99.90;;;;;;5071538;28;20584;-70
2023/07/03 04:16:04;;;;;;;7.55;1.58;;;15.00;99.90;;;;;;5071672;28;20116;-70
2023/07/03 04:18:31;;;;;;;6.78;1.95;;;15.00;99.90;;;;;;5071289;28;20047;-71
2023/07/03 04:20:58;;;;;;;9.48;1.58;;;15.00;99.90;;;;;;5071176;28;20041;-71
2023/07/03 04:23:24;;;;;;;8.77;2.20;;;15.00;99.90;;;;;;5071619;28;20407;-71
2023/07/03 04:25:53;;;;;;;8.77;2.42;;;15.00;99.90;;;;;;5070133;28;20028;-71
2023/07/03 04:28:20;;;;;;;8.40;2.00;;;15.00;99.90;;;;;;5071261;28;20115;-71
2023/07/03 04:30:46;;;;;;;9.77;2.20;;;15.00;99.90;;;;;;5071126;28;20044;-71
2023/07/03 04:33:12;;;;;;;8.18;2.05;;;15.10;99.90;;;;;;5071456;28;20110;-71
2023/07/03 04:35:38;;;;;;;9.00;2.20;;;15.10;99.90;;;;;;5070102;28;20489;-71
2023/07/03 04:38:04;;;;;;;6.88;2.15;;;15.10;99.90;;;;;;5071409;28;20067;-71
2023/07/03 04:40:30;;;;;;;7.22;2.00;;;15.20;99.90;;;;;;5071194;28;20665;-71
2023/07/03 04:42:55;;;;;;;5.68;2.17;;;15.30;99.90;;;;;;5071489;28;20043;-71
2023/07/03 04:45:21;;;;;;;9.05;2.28;;;15.30;99.90;;;;;;5071162;28;20186;-71
2023/07/03 04:47:50;;;;;;;7.68;1.98;;;15.30;99.90;;;;;;5070702;28;20036;-71
2023/07/03 04:50:17;;;;;;;6.40;1.80;;;15.50;99.90;;;;;;5071004;28;20471;-71
2023/07/03 04:52:45;;;;;;;9.57;2.38;;;15.50;99.90;;;;;;5071404;28;20040;-71
2023/07/03 04:55:14;;;;;;;5.72;1.48;;;15.70;99.90;;;;;;5071380;28;20036;-71
2023/07/03 04:57:41;;;;;;;7.55;2.08;;;15.80;99.90;;;;;;5070767;28;20044;-71
2023/07/03 05:00:16;;;;;;;7.00;1.95;;;15.90;99.90;;;;;;5070897;28;20522;-71
2023/07/03 05:02:43;;;;;;;8.85;2.55;;;16.10;99.90;;;;;;5070100;28;20119;-71
2023/07/03 05:05:10;;;;;;;7.68;1.98;;;16.30;99.90;;;;;;5069888;28;20048;-71
2023/07/03 05:07:36;;;;;;;9.23;2.08;;;16.40;99.90;;;;;;5069751;28;20419;-73
2023/07/03 05:10:02;;;;;;;7.78;1.92;;;16.60;99.90;;;;;;5070857;28;20037;-72
2023/07/03 05:12:27;;;;;;;9.75;2.53;;;16.60;99.90;;;;;;5069818;28;20454;-72
2023/07/03 05:14:54;;;;;;;5.80;2.08;;;16.80;99.90;;;;;;5064668;28;20098;-71
2023/07/03 05:17:20;;;;;;;8.65;1.63;;;17.00;99.90;;;;;;5060933;28;20557;-73
2023/07/03 05:19:46;;;;;;;6.68;2.58;;;17.20;99.90;;;;;;5052523;28;20123;-73
2023/07/03 05:22:11;;;;;;;5.10;1.67;;;17.30;99.90;;;;;;5064479;28;20043;-70
2023/07/03 05:24:37;;;;;;;7.65;2.00;;;17.60;99.90;;;;;;5073649;28;20045;-72
2023/07/03 05:27:03;;;;;;;5.88;1.70;;;17.80;99.90;;;;;;5064568;28;20495;-71
2023/07/03 05:29:28;;;;;;;7.70;2.00;;;18.00;99.90;;;;;;5074049;28;20036;-72
2023/07/03 05:31:54;;;;;;;5.25;1.75;;;18.10;99.90;;;;;;5073357;28;20404;-72
2023/07/03 05:34:20;;;;;;;10.25;2.15;;;18.10;99.90;;;;;;5073892;28;20033;-71
2023/07/03 05:36:47;;;;;;;8.95;2.42;;;17.80;99.90;;;;;;5071637;28;20048;-72
2023/07/03 05:39:13;;;;;;;7.30;1.65;;;17.50;99.90;;;;;;5065076;28;20050;-71
2023/07/03 05:41:38;;;;;;;11.73;2.33;;;17.40;99.90;;;;;;5057689;28;20032;-72
2023/07/03 05:44:04;;;;;;;11.43;1.80;;;17.30;99.90;;;;;;5062007;28;20055;-71
2023/07/03 05:46:30;;;;;;;5.68;1.63;;;17.20;99.90;;;;;;5063309;28;20040;-71
2023/07/03 05:48:55;;;;;;;8.88;1.80;;;17.00;99.90;;;;;;5064753;28;20128;-71
2023/07/03 05:51:21;;;;;;;7.78;2.10;;;17.00;99.90;;;;;;5068479;28;20042;-69
2023/07/03 05:53:46;;;;;;;3.67;1.65;;;16.90;99.90;;;;;;5048618;28;20040;-69
2023/07/03 05:56:12;;;;;;;5.72;2.22;;;16.80;99.90;;;;;;5072973;28;20041;-69
2023/07/03 05:58:37;;;;;;;5.70;1.58;;;16.70;99.90;;;;;;5073477;28;20040;-69
2023/07/03 06:01:03;;;;;;;6.43;1.65;;;16.70;99.90;;;;;;5073740;28;20041;-69
2023/07/03 06:03:31;;;;;;;7.80;1.77;;;16.50;99.90;;;;;;5073924;28;20098;-69
2023/07/03 06:05:58;;;;;;;11.60;3.17;;;16.40;99.90;;;;;;5072668;28;20051;-69
2023/07/03 06:08:24;;;;;;;11.40;2.70;;;16.20;99.90;;;;;;5073299;28;20645;-69
2023/07/03 06:10:49;;;;;;;13.25;2.50;;;16.00;99.90;;;;;;5072068;28;20050;-68
2023/07/03 06:13:15;;;;;;;9.52;2.17;;;15.80;99.90;;;;;;5073482;28;20032;-68
2023/07/03 06:15:41;;;;;;;8.10;2.17;;;15.60;99.90;;;;;;5073493;28;20037;-68
2023/07/03 06:18:07;;;;;;;7.38;2.85;;;15.40;99.90;;;;;;5073454;28;20059;-69
2023/07/03 06:20:34;;;;;;;8.95;2.28;;;15.40;99.90;;;;;;5073107;28;20499;-69
2023/07/03 06:23:00;;;;;;;11.00;3.45;;;15.20;99.90;;;;;;5072316;28;20044;-68
2023/07/03 06:25:26;;;;;;;7.13;2.65;;;15.30;99.90;;;;;;5073386;28;20180;-68
2023/07/03 06:27:51;;;;;;;11.32;2.47;;;15.90;99.90;;;;;;5072745;28;20063;-68
2023/07/03 06:30:17;;;;;;;10.65;2.63;;;16.40;99.90;;;;;;5071674;28;20041;-68
2023/07/03 06:32:43;;;;;;;12.05;3.13;;;16.90;99.90;;;;;;5072256;28;20106;-69
2023/07/03 06:35:09;;;;;;;14.43;2.20;;;17.30;99.90;;;;;;5073068;28;20040;-69
2023/07/03 06:37:35;;;;;;;16.40;2.30;;;17.30;99.90;;;;;;5072892;28;20059;-70
2023/07/03 06:40:04;;;;;;;5.93;1.92;;;17.20;99.90;;;;;;5071576;28;20056;-70
2023/07/03 06:42:30;;;;;;;6.65;1.73;;;17.10;99.90;;;;;;5054994;28;20573;-70
2023/07/03 06:44:55;;;;;;;8.85;2.25;;;17.00;99.90;;;;;;5073233;28;20040;-71
2023/07/03 06:47:21;;;;;;;7.95;3.13;;;16.70;99.90;;;;;;5072430;28;20161;-68
2023/07/03 06:49:47;;;;;;;9.80;1.80;;;16.70;99.90;;;;;;5072881;28;20037;-69
2023/07/03 06:52:12;;;;;;;6.53;1.75;;;16.50;99.90;;;;;;5072520;28;20435;-70
2023/07/03 06:54:45;;;;;;;9.45;2.25;;;16.50;99.90;;;;;;5072781;28;20525;-70
2023/07/03 06:57:11;;;;;;;10.85;2.55;;;16.30;99.90;;;;;;5071020;28;20044;-70
2023/07/03 06:59:36;;;;;;;5.88;1.63;;;16.20;99.90;;;;;;5072930;28;20470;-70
2023/07/03 07:02:05;;;;;;;4.50;1.30;;;16.00;99.90;;;;;;5072402;28;20036;-70
2023/07/03 07:04:34;;;;;;;8.00;2.28;;;15.70;99.90;;;;;;5072469;28;20040;-71
2023/07/03 07:07:00;;;;;;;5.70;3.10;;;15.50;99.90;;;;;;5072227;28;20033;-70
2023/07/03 07:09:25;;;;;;;8.32;1.77;;;15.20;99.90;;;;;;5072475;28;20044;-69
2023/07/03 07:11:51;;;;;;;8.80;1.90;;;15.20;99.90;;;;;;5072248;28;20085;-70
2023/07/03 07:14:17;;;;;;;9.88;2.88;;;15.30;99.90;;;;;;5072539;28;20051;-69
2023/07/03 07:16:43;;;;;;;9.60;2.28;;;15.80;99.90;;;;;;5071247;28;20465;-69
2023/07/03 07:19:11;;;;;;;7.68;2.10;;;15.70;99.90;;;;;;5072102;28;20044;-70
2023/07/03 07:21:39;;;;;;;10.07;2.03;;;15.70;99.90;;;;;;5071986;28;20119;-70
2023/07/03 07:24:16;;;;;;;9.13;3.15;;;15.70;99.90;;;;;;5070831;28;20033;-69
2023/07/03 07:26:43;;;;;;;12.25;2.50;;;15.80;99.90;;;;;;5102653;22;20499;-68
2023/07/03 07:29:08;;;;;;;3.78;1.65;;;15.70;99.90;;;;;;5092051;28;20040;-68
2023/07/03 07:31:37;;;;;;;6.53;1.92;;;15.70;99.90;;;;;;5091834;28;20036;-68
2023/07/03 07:34:08;;;;;;;6.97;2.22;;;15.80;99.90;;;;;;5092325;28;20035;-68
2023/07/03 07:36:34;;;;;;;7.00;2.20;;;16.30;99.90;;;;;;5091711;28;20071;-69
2023/07/03 07:39:01;;;;;;;7.90;1.77;;;16.30;99.90;;;;;;5091615;28;20068;-68
2023/07/03 07:41:27;;;;;;;7.13;2.03;;;16.20;99.90;;;;;;5091734;28;20124;-67
2023/07/03 07:43:54;;;;;;;7.07;1.65;;;16.30;99.90;;;;;;5091840;28;20032;-69
2023/07/03 07:46:21;;;;;;;5.55;1.77;;;16.10;99.90;;;;;;5091787;28;20039;-69
2023/07/03 07:48:47;;;;;;;7.55;2.05;;;16.00;99.90;;;;;;5091647;28;20075;-68
2023/07/03 07:51:13;;;;;;;4.85;1.92;;;16.00;99.90;;;;;;5091542;28;20051;-70
2023/07/03 07:53:39;;;;;;;7.72;1.83;;;15.90;99.90;;;;;;5092215;28;20040;-70
2023/07/03 07:56:07;;;;;;;6.97;2.45;;;15.90;99.90;;;;;;5091862;28;20119;-67
2023/07/03 07:58:34;;;;;;;11.45;2.05;;;16.00;99.90;;;;;;5091610;28;20101;-70
2023/07/03 08:00:59;;;;;;;13.85;2.75;;;15.80;99.90;;;;;;5091705;28;20036;-70
2023/07/03 08:03:26;;;;;;;9.23;3.53;;;15.80;99.90;;;;;;5091812;28;20554;-71
2023/07/03 08:06:00;;;;;;;8.88;2.17;;;15.70;99.90;;;;;;5091759;28;20570;-68
2023/07/03 08:08:27;;;;;;;8.35;2.10;;;15.60;99.90;;;;;;5091305;28;20036;-69
2023/07/03 08:10:54;;;;;;;10.20;2.15;;;15.60;99.90;;;;;;5091185;28;20499;-68
2023/07/03 08:13:19;;;;;;;10.98;2.42;;;15.70;99.90;;;;;;5091884;28;20035;-70
2023/07/03 08:15:45;;;;;;;11.98;2.50;;;15.80;99.90;;;;;;5091881;28;20036;-70
2023/07/03 08:18:12;;;;;;;10.32;2.13;;;15.90;99.90;;;;;;5091302;28;20513;-70
2023/07/03 08:20:37;;;;;;;7.85;2.30;;;15.80;99.90;;;;;;5091174;28;20683;-68
2023/07/03 08:23:03;;;;;;;5.97;1.80;;;15.90;99.90;;;;;;5091616;28;20105;-71
2023/07/03 08:25:28;;;;;;;3.78;1.50;;;15.80;99.90;;;;;;5090347;28;20031;-70
2023/07/03 08:27:54;;;;;;;8.80;1.95;;;16.00;99.90;;;;;;5091175;28;20028;-70
2023/07/03 08:30:22;;;;;;;4.95;1.63;;;16.00;99.90;;;;;;5091208;28;20032;-70
2023/07/03 08:32:48;;;;;;;7.05;1.67;;;16.30;99.90;;;;;;5091544;28;20395;-70
2023/07/03 08:35:13;;;;;;;8.10;1.65;;;16.80;99.90;;;;;;5091675;28;20400;-70
2023/07/03 08:37:39;;;;;;;9.90;1.90;;;17.20;99.90;;;;;;5091235;28;20042;-68
2023/07/03 08:40:07;;;;;;;6.07;1.83;;;17.50;99.90;;;;;;5091135;28;20124;-71
2023/07/03 08:42:38;;;;;;;4.60;1.45;;;17.70;99.90;;;;;;5091514;28;20040;-70
2023/07/03 08:45:06;;;;;;;8.63;2.20;;;17.40;99.90;;;;;;5091401;28;20032;-69
2023/07/03 08:47:33;;;;;;;8.38;1.70;;;17.20;99.90;;;;;;5090898;28;20109;-68
2023/07/03 08:50:02;;;;;;;7.50;2.50;;;17.10;99.90;;;;;;5091167;28;20044;-68
2023/07/03 08:52:49;;;;;;;5.38;1.48;;;16.80;99.90;;;;;;5091513;28;20046;-69
2023/07/03 08:55:22;;;;;;;4.10;1.50;;;16.60;99.90;;;;;;5092789;28;20552;-69
2023/07/03 08:57:47;;;;;;;6.95;1.48;;;16.30;99.90;;;;;;5094949;28;20045;-69
2023/07/03 09:00:13;;;;;;;7.95;2.65;;;16.80;99.90;;;;;;5095053;28;20044;-68
2023/07/03 09:02:58;;;;;;;5.80;1.75;;;17.30;99.90;;;;;;5095490;28;20088;-68
2023/07/03 09:05:35;;;;;;;5.38;1.50;;;17.50;99.90;;;;;;5095174;28;20487;-69
2023/07/03 09:08:05;;;;;;;6.40;2.20;;;17.50;99.90;;;;;;5094765;28;20407;-68
2023/07/03 09:10:43;;;;;;;7.00;2.10;;;17.20;99.90;;;;;;5094923;28;20040;-68
2023/07/03 09:13:18;;;;;;;6.25;2.28;;;17.00;99.90;;;;;;5093739;28;20122;-68
2023/07/03 09:15:52;;;;;;;8.43;2.17;;;16.80;99.90;;;;;;5095034;28;20390;-69
2023/07/03 09:18:22;;;;;;;10.18;2.10;;;16.60;99.90;;;;;;5094494;28;20036;-69
2023/07/03 09:20:48;;;;;;;11.75;2.13;;;16.30;99.90;;;;;;5094337;28;20035;-69
2023/07/03 09:23:28;;;;;;;11.70;1.90;;;15.90;99.90;;;;;;5094831;28;20118;-69
2023/07/03 09:26:11;;;;;;;5.53;1.90;;;15.70;99.90;;;;;;5094809;28;20059;-69
2023/07/03 09:28:40;;;;;;;6.63;2.35;;;15.50;99.90;;;;;;5094390;28;20036;-68
2023/07/03 09:31:05;;;;;;;9.20;1.85;;;15.50;99.90;;;;;;5094145;28;20040;-68
2023/07/03 09:33:31;;;;;;;8.43;2.50;;;15.70;99.90;;;;;;5093310;28;20039;-68
2023/07/03 09:36:02;;;;;;;6.40;1.80;;;16.30;99.90;;;;;;5094500;28;20032;-68
2023/07/03 09:38:28;;;;;;;10.48;2.40;;;16.60;99.90;;;;;;5094335;28;20054;-68
2023/07/03 09:40:54;;;;;;;7.32;2.58;;;16.60;99.90;;;;;;5094201;28;20040;-68
2023/07/03 09:43:23;;;;;;;8.70;1.88;;;16.50;99.90;;;;;;5094428;28;20047;-68
2023/07/03 09:45:50;;;;;;;3.92;2.17;;;17.10;99.90;;;;;;5090042;28;20106;-68
2023/07/03 09:48:24;;;;;;;10.07;2.55;;;17.30;99.90;;;;;;5093715;28;20123;-69
2023/07/03 09:50:50;;;;;;;5.40;1.40;;;17.30;99.90;;;;;;5093919;28;20449;-69
2023/07/03 09:53:22;;;;;;;8.60;1.48;;;17.30;99.90;;;;;;5093906;28;20048;-68
2023/07/03 09:55:57;;;;;;;6.47;1.25;;;17.10;99.90;;;;;;5094081;28;20036;-68
2023/07/03 09:58:27;;;;;;;3.70;1.52;;;16.70;99.90;;;;;;5085426;28;20037;-69
2023/07/03 10:00:57;;;;;;;3.63;1.15;;;16.70;99.90;;;;;;5094147;28;20066;-68
2023/07/03 10:03:25;;;;;;;6.35;1.25;;;16.40;99.90;;;;;;5094224;28;20040;-69
2023/07/03 10:05:51;;;;;;;5.57;1.20;;;16.40;99.90;;;;;;5093803;28;20078;-69
2023/07/03 10:08:21;;;;;;;4.20;1.27;;;16.20;99.90;;;;;;5092185;28;20036;-69
2023/07/03 10:10:47;;;;;;;3.25;1.30;;;16.00;99.90;;;;;;5093459;28;20043;-69
2023/07/03 10:13:21;;;;;;;5.47;1.10;;;16.00;99.90;;;;;;5094228;28;20040;-69
2023/07/03 10:15:47;;;;;;;10.52;2.72;;;16.00;99.90;;;;;;5094140;28;20443;-69
2023/07/03 10:18:43;;;;;;;6.28;1.33;;;16.10;99.90;;;;;;5093501;28;20040;-69
2023/07/03 10:21:12;;;;;;;5.47;1.27;;;15.90;99.90;;;;;;5089671;28;20048;-69
2023/07/03 10:23:40;;;;;;;2.33;1.33;;;16.00;99.90;;;;;;5093618;28;20574;-69
2023/07/03 10:26:25;;;;;;;3.40;1.40;;;16.00;99.90;;;;;;5093440;28;20503;-69
2023/07/03 10:29:19;;;;;;;2.05;0.80;;;16.00;99.90;;;;;;5092025;28;20090;-68
2023/07/03 10:31:47;;;;;;;;;;;15.80;99.90;;;;;;5093560;28;20040;-69
2023/07/03 10:34:29;;;;;;;2.67;1.00;;;15.50;99.90;;;;;;5092246;28;20325;-69
2023/07/03 10:37:00;;;;;;;1.30;0.80;;;15.40;99.90;;;;;;5093438;28;20173;-68
2023/07/03 10:39:40;;;;;;;2.47;1.05;;;15.40;99.90;;;;;;5093495;28;20427;-69
2023/07/03 10:42:20;;;;;;;3.78;1.10;;;15.50;99.90;;;;;;5092910;28;20052;-69
2023/07/03 10:44:49;;;;;;;1.98;0.93;;;15.60;99.90;;;;;;5092357;28;20523;-68
2023/07/03 10:47:29;;;;;;;4.25;1.10;;;15.80;99.90;;;;;;5092968;28;20048;-70
2023/07/03 10:49:57;;;;;;;4.68;1.40;;;16.10;99.90;;;;;;5093036;28;20048;-69
2023/07/03 10:52:36;;;;;;;6.75;1.30;;;16.50;99.90;;;;;;5092929;28;20040;-69
2023/07/03 10:55:29;;;;;;;6.88;1.83;;;16.60;99.90;;;;;;5093129;28;20502;-69
2023/07/03 10:58:30;;;;;;;8.20;2.05;;;17.10;99.90;;;;;;5092756;28;20086;-69
2023/07/03 11:01:01;;;;;;;4.70;1.52;;;17.40;99.90;;;;;;5091430;28;20637;-69
2023/07/03 11:03:40;;;;;;;7.40;2.08;;;17.60;99.90;;;;;;5093044;28;20047;-69
2023/07/03 11:06:14;;;;;;;7.10;1.90;;;17.80;99.90;;;;;;5092656;28;20531;-68
2023/07/03 11:08:54;;;;;;;59.90;10.95;;;18.10;99.90;;;;;;5092407;28;20032;-69
2023/07/03 11:11:56;;;;;;;32.10;8.02;;;17.90;99.90;;;;;;5092681;28;20040;-68
2023/07/03 11:14:37;;;;;;;8.73;2.63;;;17.90;99.90;;;;;;5090040;28;20036;-68
2023/07/03 11:17:39;;;;;;;40.78;7.97;;;17.80;99.90;;;;;;5091898;28;20039;-68
2023/07/03 11:20:14;;;;;;;15.05;4.15;;;17.60;99.90;;;;;;5087544;28;20518;-68
2023/07/03 11:23:00;;;;;;;5.32;1.80;;;17.60;99.90;;;;;;5092540;28;20044;-68
2023/07/03 11:25:52;;;;;;;6.45;2.10;;;17.70;99.90;;;;;;5091951;28;20104;-68
2023/07/03 11:28:32;;;;;;;4.45;1.45;;;17.80;99.90;;;;;;5080735;28;20112;-68
2023/07/03 11:31:00;;;;;;;7.03;2.33;;;17.80;99.90;;;;;;5084785;28;20075;-68
2023/07/03 11:33:26;;;;;;;11.10;2.38;;;17.80;99.90;;;;;;5091817;28;20236;-68
2023/07/03 11:35:54;;;;;;;14.75;2.08;;;17.80;99.90;;;;;;5092231;28;20457;-68
2023/07/03 11:38:20;;;;;;;7.25;1.73;;;17.70;99.90;;;;;;5091654;28;20110;-68
2023/07/03 11:40:55;;;;;;;4.72;1.27;;;17.50;99.90;;;;;;5089626;28;20040;-71
2023/07/03 11:43:36;;;;;;;6.18;1.42;;;17.30;99.90;;;;;;5091174;28;20032;-68
2023/07/03 11:46:11;;;;;;;34.55;4.60;;;17.30;99.90;;;;;;5090960;28;20129;-67
2023/07/03 11:48:37;;;;;;;4.53;0.90;;;17.30;99.90;;;;;;5088821;28;20035;-69
2023/07/03 11:51:06;;;;;;;3.45;0.98;;;17.40;99.90;;;;;;5090595;28;20116;-67
2023/07/03 11:53:34;;;;;;;4.07;1.13;;;17.60;99.90;;;;;;5091862;28;20043;-68
2023/07/03 11:56:00;;;;;;;7.63;2.05;;;17.90;99.90;;;;;;5091611;28;20032;-68
2023/07/03 11:58:29;;;;;;;5.82;1.40;;;18.30;99.90;;;;;;5090711;28;20032;-68
2023/07/03 12:01:30;;;;;;;2.08;0.80;;;18.40;99.90;;;;;;5087177;28;20051;-68
2023/07/03 12:04:02;;;;;;;4.60;0.77;;;18.30;99.90;;;;;;5086593;28;20036;-68
2023/07/03 12:06:44;;;;;;;13.90;3.08;;;18.00;99.90;;;;;;5090437;28;20054;-67
2023/07/03 12:09:21;;;;;;;6.93;2.13;;;17.80;99.90;;;;;;5091681;28;20071;-68
2023/07/03 12:11:59;;;;;;;2.83;0.70;;;17.60;99.90;;;;;;5091846;28;20165;-68
2023/07/03 12:15:00;;;;;;;4.32;1.00;;;17.40;99.90;;;;;;5092009;28;20036;-68
2023/07/03 12:17:27;;;;;;;4.55;1.05;;;17.20;99.90;;;;;;5079516;28;20469;-67
2023/07/03 12:20:20;;;;;;;5.43;1.60;;;17.10;99.90;;;;;;5091432;28;20040;-67
2023/07/03 12:22:48;;;;;;;8.98;1.20;;;17.00;99.90;;;;;;5091968;28;20059;-67
2023/07/03 12:25:25;;;;;;;7.85;1.08;;;17.00;99.90;;;;;;5091424;28;20495;-68
2023/07/03 12:27:52;;;;;;;5.95;1.42;;;17.00;99.90;;;;;;5091030;28;20518;-67
2023/07/03 12:30:24;;;;;;;4.60;1.30;;;17.00;99.90;;;;;;5092648;28;20560;-68
2023/07/03 12:32:51;;;;;;;8.20;1.13;;;16.90;99.90;;;;;;5092819;28;20036;-67
2023/07/03 12:35:25;;;;;;;7.53;1.13;;;17.00;99.90;;;;;;5095283;28;20077;-67
2023/07/03 12:37:56;;;;;;;6.38;1.10;;;16.90;99.90;;;;;;5095540;28;20039;-67
2023/07/03 12:40:24;;;;;;;4.15;0.95;;;17.00;99.90;;;;;;5095368;28;20118;-68
2023/07/03 12:42:55;;;;;;;5.53;1.02;;;16.90;99.90;;;;;;5095482;28;20475;-68
2023/07/03 12:45:32;;;;;;;4.07;1.08;;;16.90;99.90;;;;;;5095519;28;20051;-67
2023/07/03 12:48:17;;;;;;;4.57;1.00;;;16.90;99.90;;;;;;5095302;28;20036;-67
2023/07/03 12:50:51;;;;;;;3.00;1.15;;;17.00;99.90;;;;;;5095255;28;20081;-67
2023/07/03 12:53:18;;;;;;;5.78;1.10;;;17.00;99.90;;;;;;5095281;28;20513;-67